EDT,Max TemperatureF,Mean TemperatureF,Min TemperatureF,Max Dew PointF,MeanDew PointF,Min DewpointF,Max Humidity, Mean Humidity, Min Humidity, Max Sea Level PressureIn, Mean Sea Level PressureIn, Min Sea Level PressureIn, Max VisibilityMiles, Mean VisibilityMiles, Min VisibilityMiles, Max Wind SpeedMPH, Mean Wind SpeedMPH, Max Gust SpeedMPH,PrecipitationIn, CloudCover, Events, WindDirDegrees
2012-3-1,57,48,38,43,36,27,100,71,41,30.01,29.73,29.61,10,5,0,24,8,33,0.01,5,Fog,325
2012-3-2,50,40,30,43,36,26,85,68,50,30.07,29.86,29.62,10,8,2,21,7,26,T,5,Rain,153
2012-3-3,57,51,44,45,34,14,100,60,19,29.78,29.62,29.52,10,8,1,29,12,39,0.01,4,,231
2012-3-4,43,37,31,25,20,17,64,52,39,29.90,29.78,29.73,10,10,10,25,12,30,0.00,5,,284
2012-3-5,41,35,28,27,20,12,70,55,40,30.50,30.15,29.93,10,9,2,25,6,30,T,3,Snow,287
2012-3-6,47,35,22,22,17,13,68,51,33,30.69,30.59,30.52,10,10,10,15,5,20,0.00,0,,184
2012-3-7,65,50,34,40,29,21,56,41,26,30.54,30.43,30.31,10,10,10,20,9,25,0.00,0,,171
2012-3-8,69,60,50,49,44,40,74,59,44,30.32,30.11,29.93,10,10,4,24,14,35,0.00,3,Rain,200
2012-3-9,53,46,38,40,22,14,71,51,30,30.40,30.22,30.09,10,10,10,36,15,40,0.00,1,,307
2012-3-10,45,36,27,16,13,10,57,41,25,30.62,30.53,30.41,10,10,10,20,9,24,0.00,0,,335
2012-3-11,63,47,31,29,23,13,52,39,26,30.56,30.47,30.38,10,10,10,13,5,15,0.00,0,,170
2012-3-12,68,54,39,38,32,27,63,41,25,30.38,30.26,30.12,10,10,10,9,4,,0.00,2,,162
2012-3-13,78,67,57,53,48,41,77,53,33,30.11,30.05,29.99,10,10,10,18,8,26,0.00,3,,212
2012-3-14,78,66,54,46,39,29,60,39,22,30.23,30.17,30.08,10,10,10,10,6,,0.00,0,,320
2012-3-15,80,65,50,51,45,40,75,51,30,30.23,30.18,30.12,10,10,8,8,4,,0.01,1,,141
2012-3-16,69,58,48,54,49,45,90,77,57,30.21,30.17,30.13,10,5,2,8,5,,0.00,1,,55
2012-3-17,75,62,50,55,51,46,92,71,41,30.31,30.26,30.21,10,7,2,8,3,,0.00,0,,102
2012-3-18,64,57,50,53,52,48,94,81,65,30.37,30.30,30.21,10,6,2,10,5,,0.00,3,,160
2012-3-19,70,62,54,61,56,52,100,84,61,30.23,30.19,30.16,10,7,2,8,4,,0.57,6,Rain,60
2012-3-20,72,66,59,61,58,56,94,82,61,30.30,30.24,30.18,10,9,4,7,3,,0.12,7,Rain,107
2012-3-21,66,60,55,57,56,54,100,85,73,30.37,30.30,30.24,10,7,1,10,5,,0.00,6,,83
2012-3-22,75,67,59,60,58,56,90,78,52,30.29,30.21,30.12,10,6,2,7,1,,0.00,4,,94
2012-3-23,80,67,54,61,54,50,93,64,35,30.14,30.06,29.97,10,5,0,9,3,14,0.00,0,Fog,29
2012-3-24,68,63,57,59,55,46,93,76,59,29.97,29.92,29.88,10,5,1,14,9,17,0.62,8,Rain-Thunderstorm,62
2012-3-25,61,54,47,54,48,45,93,83,72,29.91,29.85,29.79,10,8,3,14,7,18,0.02,7,Rain,347
2012-3-26,58,53,48,49,27,5,72,49,26,30.27,30.01,29.85,10,10,10,29,16,36,0.00,0,,329
2012-3-27,53,40,27,18,13,9,53,37,21,30.41,30.32,30.19,10,10,10,12,4,14,0.00,0,,340
2012-3-28,71,58,44,57,38,17,78,55,31,30.15,29.84,29.66,10,9,2,15,8,20,0.13,3,Rain,202
2012-3-29,61,55,48,41,34,30,59,49,38,30.08,29.92,29.74,10,10,10,26,14,31,0.00,2,,338
2012-3-30,52,43,34,38,32,28,82,67,52,30.15,30.03,29.86,10,10,10,15,5,16,0.00,2,,132
2012-3-31,46,46,46,47,44,39,82,82,82,29.94,29.84,29.77,10,5,1,5,5,,0.05,7,Rain-Thunderstorm,5